createdAt,value
2019-05-07T00:01:55.235Z,100489.00
2019-05-07T00:04:24.231Z,100479.00
2019-05-07T00:06:54.207Z,100476.00
2019-05-07T00:09:23.890Z,100477.00
2019-05-07T00:11:53.882Z,100478.00
2019-05-07T00:14:25.769Z,100478.00
2019-05-07T00:16:55.439Z,100486.00
2019-05-07T00:19:25.156Z,100483.00
2019-05-07T00:21:55.244Z,100481.00
2019-05-07T00:24:24.935Z,100474.00
2019-05-07T00:26:54.620Z,100475.00
2019-05-07T00:29:24.216Z,100476.00
2019-05-07T00:31:53.867Z,100469.00
2019-05-07T00:34:25.196Z,100481.00
2019-05-07T00:37:02.607Z,100469.00
2019-05-07T00:39:42.299Z,100471.00
2019-05-07T00:42:16.171Z,100474.00
2019-05-07T00:44:50.590Z,100462.00
2019-05-07T00:47:22.109Z,100466.00
2019-05-07T00:49:52.278Z,100466.00
2019-05-07T00:52:24.746Z,100454.00
2019-05-07T00:54:55.558Z,100467.00
2019-05-07T00:57:25.912Z,100459.00
2019-05-07T00:59:55.630Z,100452.00
2019-05-07T01:02:25.372Z,100453.00
2019-05-07T01:04:55.043Z,100457.00
2019-05-07T01:07:24.731Z,100448.00
2019-05-07T01:09:54.397Z,100451.00
2019-05-07T01:12:24.060Z,100444.00
2019-05-07T01:14:55.104Z,100444.00
2019-05-07T01:17:24.766Z,100439.00
2019-05-07T01:19:54.421Z,100446.00
2019-05-07T01:22:25.400Z,100431.00
2019-05-07T01:24:57.607Z,100436.00
2019-05-07T01:27:28.516Z,100437.00
2019-05-07T01:29:58.323Z,100435.00
2019-05-07T01:32:29.474Z,100438.00
2019-05-07T01:35:02.450Z,100443.00
2019-05-07T01:37:35.141Z,100437.00
2019-05-07T01:40:05.341Z,100433.00
2019-05-07T01:42:36.729Z,100435.00
2019-05-07T01:45:09.478Z,100436.00
2019-05-07T01:47:38.997Z,100430.00
2019-05-07T01:50:09.058Z,100430.00
2019-05-07T01:52:38.744Z,100426.00
2019-05-07T01:55:10.104Z,100432.00
2019-05-07T01:57:41.982Z,100433.00
2019-05-07T02:00:13.057Z,100425.00
2019-05-07T02:02:44.577Z,100418.00
2019-05-07T02:05:16.401Z,100412.00
2019-05-07T02:07:47.635Z,100409.00
2019-05-07T02:10:35.296Z,100411.00
2019-05-07T02:13:04.979Z,100406.00
2019-05-07T02:15:34.684Z,100400.00
2019-05-07T02:18:04.551Z,100399.00
2019-05-07T02:20:38.946Z,100395.00
2019-05-07T02:23:08.864Z,100396.00
2019-05-07T02:25:38.530Z,100387.00
2019-05-07T02:28:08.347Z,100387.00
2019-05-07T02:30:38.078Z,100400.00
2019-05-07T02:33:09.268Z,100396.00
2019-05-07T02:35:39.026Z,100398.00
2019-05-07T02:38:13.431Z,100388.00
2019-05-07T02:40:53.416Z,100388.00
2019-05-07T02:43:23.386Z,100391.00
2019-05-07T02:46:15.980Z,100379.00
2019-05-07T02:48:33.448Z,100373.00
2019-05-07T02:51:04.951Z,100377.00
2019-05-07T02:53:36.241Z,100376.00
2019-05-07T02:56:07.075Z,100371.00
2019-05-07T02:58:36.757Z,100370.00
2019-05-07T03:01:07.760Z,100369.00
2019-05-07T03:03:37.746Z,100371.00
2019-05-07T03:06:07.397Z,100369.00
2019-05-07T03:08:36.987Z,100364.00
2019-05-07T03:11:07.966Z,100364.00
2019-05-07T03:13:39.133Z,100359.00
2019-05-07T03:16:09.574Z,100352.00
2019-05-07T03:18:43.512Z,100348.00
2019-05-07T03:21:16.860Z,100348.00
2019-05-07T03:23:53.659Z,100350.00
2019-05-07T03:26:24.788Z,100351.00
2019-05-07T03:28:58.806Z,100348.00
2019-05-07T03:31:36.048Z,100352.00
2019-05-07T03:34:07.361Z,100346.00
2019-05-07T03:36:39.229Z,100347.00
2019-05-07T03:39:09.514Z,100343.00
2019-05-07T03:41:43.074Z,100344.00
2019-05-07T03:44:14.160Z,100334.00
2019-05-07T03:46:54.560Z,100335.00
2019-05-07T03:49:29.105Z,100342.00
2019-05-07T03:51:59.156Z,100334.00
2019-05-07T03:54:28.821Z,100318.00
2019-05-07T03:57:07.432Z,100335.00
2019-05-07T03:59:34.273Z,100318.00
2019-05-07T04:02:03.463Z,100321.00
2019-05-07T04:04:33.474Z,100318.00
2019-05-07T04:07:03.781Z,100321.00
2019-05-07T04:09:33.653Z,100316.00
2019-05-07T04:12:04.981Z,100308.00
2019-05-07T04:14:34.920Z,100312.00
2019-05-07T04:17:16.687Z,100314.00
2019-05-07T04:19:36.349Z,100309.00
2019-05-07T04:22:06.020Z,100311.00
2019-05-07T04:24:37.339Z,100303.00
2019-05-07T04:27:25.132Z,100310.00
2019-05-07T04:29:54.758Z,100306.00
2019-05-07T04:32:26.069Z,100303.00
2019-05-07T04:35:03.576Z,100302.00
2019-05-07T04:37:33.145Z,100298.00
2019-05-07T04:40:03.433Z,100292.00
2019-05-07T04:42:33.601Z,100290.00
2019-05-07T04:45:05.225Z,100287.00
2019-05-07T04:47:42.897Z,100291.00
2019-05-07T04:50:13.645Z,100291.00
2019-05-07T04:52:43.660Z,100289.00
2019-05-07T04:55:14.087Z,100302.00
2019-05-07T04:57:44.105Z,100292.00
2019-05-07T05:00:15.730Z,100289.00
2019-05-07T05:02:52.679Z,100294.00
2019-05-07T05:05:23.536Z,100291.00
2019-05-07T05:07:53.652Z,100287.00
2019-05-07T05:10:23.504Z,100289.00
2019-05-07T05:12:53.853Z,100281.00
2019-05-07T05:15:23.640Z,100278.00
2019-05-07T05:17:54.278Z,100277.00
2019-05-07T05:20:34.670Z,100276.00
2019-05-07T05:23:23.935Z,100270.00
2019-05-07T05:25:55.771Z,100275.00
2019-05-07T05:28:26.096Z,100259.00
2019-05-07T05:30:57.314Z,100264.00
2019-05-07T05:33:26.998Z,100270.00
2019-05-07T05:36:03.027Z,100268.00
2019-05-07T05:38:33.229Z,100250.00
2019-05-07T05:41:02.999Z,100255.00
2019-05-07T05:43:34.279Z,100255.00
2019-05-07T05:46:14.389Z,100259.00
2019-05-07T05:48:44.348Z,100253.00
2019-05-07T05:51:27.509Z,100257.00
2019-05-07T05:53:58.833Z,100258.00
2019-05-07T05:56:43.832Z,100267.00
2019-05-07T05:59:46.577Z,100262.00
2019-05-07T06:02:06.656Z,100251.00
2019-05-07T06:04:42.041Z,100256.00
2019-05-07T06:07:22.739Z,100254.00
2019-05-07T06:09:54.202Z,100251.00
2019-05-07T06:12:28.072Z,100251.00
2019-05-07T06:15:06.354Z,100225.00
2019-05-07T06:17:37.529Z,100246.00
2019-05-07T06:20:22.773Z,100250.00
2019-05-07T06:23:12.700Z,100248.00
2019-05-07T06:25:43.267Z,100254.00
2019-05-07T06:28:14.384Z,100251.00
2019-05-07T06:30:44.136Z,100238.00
2019-05-07T06:33:13.823Z,100251.00
2019-05-07T06:35:43.477Z,100250.00
2019-05-07T06:38:22.019Z,100243.00
2019-05-07T06:41:12.068Z,100240.00
2019-05-07T06:43:45.963Z,100243.00
2019-05-07T06:46:15.652Z,100242.00
2019-05-07T06:48:46.383Z,100232.00
2019-05-07T06:51:17.643Z,100237.00
2019-05-07T06:53:47.443Z,100239.00
2019-05-07T06:56:18.840Z,100232.00
2019-05-07T06:58:57.063Z,100238.00
2019-05-07T07:01:28.377Z,100237.00
2019-05-07T07:03:59.804Z,100233.00
2019-05-07T07:06:35.107Z,100234.00
2019-05-07T07:09:24.972Z,100236.00
2019-05-07T07:12:14.337Z,100235.00
2019-05-07T07:14:44.063Z,100222.00
2019-05-07T07:17:13.747Z,100239.00
2019-05-07T07:19:43.424Z,100232.00
2019-05-07T07:22:13.179Z,100218.00
2019-05-07T07:24:42.792Z,100216.00
2019-05-07T07:27:13.145Z,100218.00
2019-05-07T07:29:47.792Z,100211.00
2019-05-07T07:32:19.125Z,100213.00
2019-05-07T07:34:53.101Z,100215.00
2019-05-07T07:37:23.633Z,100214.00
2019-05-07T07:39:54.957Z,100208.00
2019-05-07T07:42:25.494Z,100211.00
2019-05-07T07:45:13.173Z,100213.00
2019-05-07T07:47:42.819Z,100201.00
2019-05-07T07:50:13.792Z,100206.00
2019-05-07T07:53:02.776Z,100196.00
2019-05-07T07:55:34.053Z,100198.00
2019-05-07T07:58:12.443Z,100196.00
2019-05-07T08:00:48.935Z,100201.00
2019-05-07T08:03:18.620Z,100201.00
2019-05-07T08:05:51.841Z,100196.00
2019-05-07T08:08:22.010Z,100195.00
2019-05-07T08:10:52.118Z,100190.00
2019-05-07T08:13:22.902Z,100188.00
2019-05-07T08:15:52.922Z,100192.00
2019-05-07T08:18:22.645Z,100178.00
2019-05-07T08:20:52.974Z,100181.00
2019-05-07T08:23:22.758Z,100184.00
2019-05-07T08:25:52.759Z,100181.00
2019-05-07T08:28:23.495Z,100175.00
2019-05-07T08:30:57.408Z,100175.00
2019-05-07T08:33:34.800Z,100182.00
2019-05-07T08:36:18.155Z,100176.00
2019-05-07T08:38:53.212Z,100165.00
2019-05-07T08:41:25.843Z,100164.00
2019-05-07T08:44:09.187Z,100165.00
2019-05-07T08:46:48.932Z,100162.00
2019-05-07T08:49:33.432Z,100161.00
2019-05-07T08:52:03.101Z,100158.00
2019-05-07T08:54:32.974Z,100152.00
2019-05-07T08:57:04.061Z,100155.00
2019-05-07T08:59:35.096Z,100147.00
2019-05-07T09:02:05.660Z,100137.00
2019-05-07T09:04:35.318Z,100136.00
2019-05-07T09:07:05.824Z,100124.00
2019-05-07T09:09:35.481Z,100123.00
2019-05-07T09:12:05.454Z,100132.00
2019-05-07T09:14:36.777Z,100125.00
2019-05-07T09:17:06.435Z,100118.00
2019-05-07T09:19:47.333Z,100126.00
2019-05-07T09:22:09.109Z,100115.00
2019-05-07T09:24:38.786Z,100111.00
2019-05-07T09:27:14.192Z,100114.00
2019-05-07T09:29:56.638Z,100104.00
2019-05-07T09:32:27.966Z,100105.00
2019-05-07T09:35:04.300Z,100107.00
2019-05-07T09:37:34.612Z,100100.00
2019-05-07T09:40:06.374Z,100104.00
2019-05-07T09:42:37.539Z,100098.00
2019-05-07T09:45:09.337Z,100095.00
2019-05-07T09:47:39.003Z,100087.00
2019-05-07T09:50:09.269Z,100088.00
2019-05-07T09:52:38.963Z,100083.00
2019-05-07T09:55:14.883Z,100076.00
2019-05-07T09:57:42.488Z,100078.00
2019-05-07T10:00:13.999Z,100080.00
2019-05-07T10:02:43.922Z,100078.00
2019-05-07T10:05:13.885Z,100067.00
2019-05-07T10:07:44.619Z,100066.00
2019-05-07T10:10:14.794Z,100066.00
2019-05-07T10:13:02.359Z,100061.00
2019-05-07T10:15:34.626Z,100058.00
2019-05-07T10:18:12.422Z,100056.00
2019-05-07T10:20:44.741Z,100055.00
2019-05-07T10:23:22.780Z,100055.00
2019-05-07T10:25:55.102Z,100058.00
2019-05-07T10:28:27.138Z,100048.00
2019-05-07T10:30:56.893Z,100048.00
2019-05-07T10:33:27.568Z,100050.00
2019-05-07T10:35:58.232Z,100044.00
2019-05-07T10:38:28.406Z,100045.00
2019-05-07T10:40:58.064Z,100038.00
2019-05-07T10:43:29.222Z,100039.00
2019-05-07T10:46:02.376Z,100040.00
2019-05-07T10:48:34.012Z,100031.00
2019-05-07T10:51:05.877Z,100021.00
2019-05-07T10:53:36.022Z,100037.00
2019-05-07T10:56:07.366Z,100033.00
2019-05-07T10:58:37.192Z,100035.00
2019-05-07T11:01:32.761Z,100032.00
2019-05-07T11:04:02.350Z,100030.00
2019-05-07T11:06:32.456Z,100033.00
2019-05-07T11:09:02.082Z,100025.00
2019-05-07T11:11:31.976Z,100015.00
2019-05-07T11:14:21.729Z,100010.00
2019-05-07T11:16:59.738Z,100008.00
2019-05-07T11:19:29.495Z,100002.00
2019-05-07T11:21:59.851Z,99996.00
2019-05-07T11:24:32.153Z,99996.00
2019-05-07T11:27:02.456Z,99995.00
2019-05-07T11:29:33.822Z,99992.00
2019-05-07T11:32:03.922Z,99983.00
2019-05-07T11:34:36.806Z,99987.00
2019-05-07T11:37:07.163Z,99983.00
2019-05-07T11:39:36.857Z,99981.00
2019-05-07T11:42:12.701Z,99983.00
2019-05-07T11:44:42.505Z,99967.00
2019-05-07T11:47:22.649Z,99971.00
2019-05-07T11:50:12.015Z,99968.00
2019-05-07T11:52:52.399Z,99960.00
2019-05-07T11:55:22.443Z,99963.00
2019-05-07T11:57:55.856Z,99964.00
2019-05-07T12:00:32.446Z,99957.00
2019-05-07T12:03:03.952Z,99963.00
2019-05-07T12:05:34.018Z,99961.00
2019-05-07T12:08:04.219Z,99947.00
2019-05-07T12:10:33.881Z,99944.00
2019-05-07T12:13:03.588Z,99945.00
2019-05-07T12:15:33.572Z,99947.00
2019-05-07T12:18:03.734Z,99947.00
2019-05-07T12:20:33.779Z,99938.00
2019-05-07T12:23:03.544Z,99940.00
2019-05-07T12:25:33.476Z,99949.00
2019-05-07T12:28:06.829Z,99941.00
2019-05-07T12:30:38.777Z,99942.00
2019-05-07T12:33:13.066Z,99949.00
2019-05-07T12:35:42.738Z,99942.00
2019-05-07T12:38:12.853Z,99941.00
2019-05-07T12:40:43.228Z,99938.00
2019-05-07T12:43:12.860Z,99942.00
2019-05-07T12:45:42.498Z,99935.00
2019-05-07T12:48:14.226Z,99938.00
2019-05-07T12:50:43.547Z,99934.00
2019-05-07T12:53:14.892Z,99923.00
2019-05-07T12:55:46.270Z,99920.00
2019-05-07T12:58:15.934Z,99913.00
2019-05-07T13:00:59.424Z,99918.00
2019-05-07T13:03:51.935Z,99914.00
2019-05-07T13:06:23.333Z,99902.00
2019-05-07T13:09:14.548Z,99892.00
2019-05-07T13:11:45.030Z,99885.00
2019-05-07T13:14:21.788Z,99893.00
2019-05-07T13:16:52.382Z,99883.00
2019-05-07T13:19:26.729Z,99887.00
2019-05-07T13:21:58.997Z,99885.00
2019-05-07T13:24:32.126Z,99892.00
2019-05-07T13:27:03.306Z,99887.00
2019-05-07T13:29:33.646Z,99885.00
2019-05-07T13:32:05.497Z,99877.00
2019-05-07T13:34:35.664Z,99875.00
2019-05-07T13:37:23.038Z,99869.00
2019-05-07T13:39:55.250Z,99870.00
2019-05-07T13:42:43.506Z,99856.00
2019-05-07T13:45:13.024Z,99857.00
2019-05-07T13:47:42.804Z,99850.00
2019-05-07T13:50:18.289Z,99850.00
2019-05-07T13:52:48.372Z,99843.00
2019-05-07T13:55:18.067Z,99833.00
2019-05-07T13:57:47.755Z,99821.00
2019-05-07T14:00:21.850Z,99830.00
2019-05-07T14:02:52.019Z,99826.00
2019-05-07T14:05:23.105Z,99817.00
2019-05-07T14:07:52.781Z,99811.00
2019-05-07T14:10:22.625Z,99811.00
2019-05-07T14:12:52.324Z,99821.00
2019-05-07T14:15:23.150Z,99824.00
2019-05-07T14:17:55.119Z,99823.00
2019-05-07T14:20:25.015Z,99822.00
2019-05-07T14:22:54.704Z,99813.00
2019-05-07T14:25:24.554Z,99799.00
2019-05-07T14:28:13.483Z,99795.00
2019-05-07T14:30:43.267Z,99774.00
2019-05-07T14:33:14.570Z,99786.00
2019-05-07T14:35:52.067Z,99787.00
2019-05-07T14:38:26.621Z,99781.00
2019-05-07T14:40:56.655Z,99780.00
2019-05-07T14:43:32.472Z,99761.00
2019-05-07T14:46:03.715Z,99766.00
2019-05-07T14:48:36.105Z,99749.00
2019-05-07T14:51:05.152Z,99751.00
2019-05-07T14:53:34.849Z,99752.00
2019-05-07T14:56:06.583Z,99743.00
2019-05-07T14:58:37.273Z,99741.00
2019-05-07T15:01:07.313Z,99737.00
2019-05-07T15:03:36.970Z,99736.00
2019-05-07T15:06:07.148Z,99731.00
2019-05-07T15:08:36.835Z,99727.00
2019-05-07T15:11:08.132Z,99710.00
2019-05-07T15:13:39.433Z,99723.00
2019-05-07T15:16:09.109Z,99684.00
2019-05-07T15:18:43.040Z,99697.00
2019-05-07T15:21:14.574Z,99697.00
2019-05-07T15:23:52.990Z,99690.00
2019-05-07T15:26:24.781Z,99688.00
2019-05-07T15:28:56.127Z,99684.00
2019-05-07T15:31:36.459Z,99685.00
2019-05-07T15:34:06.278Z,99683.00
2019-05-07T15:36:36.600Z,99677.00
2019-05-07T15:39:07.945Z,99684.00
2019-05-07T15:41:37.624Z,99678.00
2019-05-07T15:44:07.279Z,99673.00
2019-05-07T15:46:37.136Z,99662.00
2019-05-07T15:49:06.800Z,99660.00
2019-05-07T15:51:36.460Z,99655.00
2019-05-07T15:54:06.703Z,99652.00
2019-05-07T15:56:36.368Z,99650.00
2019-05-07T15:59:07.524Z,99647.00
2019-05-07T16:01:38.850Z,99650.00
2019-05-07T16:04:21.765Z,99641.00
2019-05-07T16:06:42.599Z,99642.00
2019-05-07T16:09:13.064Z,99629.00
2019-05-07T16:11:43.202Z,99634.00
2019-05-07T16:14:14.963Z,99634.00
2019-05-07T16:16:46.586Z,99627.00
2019-05-07T16:19:17.891Z,99621.00
2019-05-07T16:21:47.574Z,99619.00
2019-05-07T16:24:17.301Z,99619.00
2019-05-07T16:26:47.100Z,99610.00
2019-05-07T16:29:16.834Z,99600.00
2019-05-07T16:31:48.902Z,99604.00
2019-05-07T16:34:18.916Z,99612.00
2019-05-07T16:36:49.013Z,99593.00
2019-05-07T16:39:18.816Z,99592.00
2019-05-07T16:41:52.631Z,99592.00
2019-05-07T16:44:22.629Z,99586.00
2019-05-07T16:46:53.472Z,99594.00
2019-05-07T16:49:23.258Z,99595.00
2019-05-07T16:51:52.767Z,99590.00
2019-05-07T16:54:22.434Z,99583.00
2019-05-07T16:57:12.043Z,99580.00
2019-05-07T16:59:42.723Z,99586.00
2019-05-07T17:02:14.130Z,99569.00
2019-05-07T17:04:52.042Z,99573.00
2019-05-07T17:07:22.077Z,99568.00
2019-05-07T17:09:53.252Z,99573.00
2019-05-07T17:12:23.032Z,99572.00
2019-05-07T17:14:52.652Z,99569.00
2019-05-07T17:17:22.498Z,99569.00
2019-05-07T17:19:53.935Z,99564.00
2019-05-07T17:22:23.811Z,99561.00
2019-05-07T17:24:53.476Z,99563.00
2019-05-07T17:27:23.158Z,99557.00
2019-05-07T17:29:52.747Z,99551.00
2019-05-07T17:32:22.917Z,99544.00
2019-05-07T17:34:52.915Z,99540.00
2019-05-07T17:37:22.947Z,99535.00
2019-05-07T17:39:53.931Z,99532.00
2019-05-07T17:42:23.627Z,99524.00
2019-05-07T17:45:02.822Z,99513.00
2019-05-07T17:47:32.246Z,99509.00
2019-05-07T17:50:05.435Z,99505.00
2019-05-07T17:52:35.236Z,99502.00
2019-05-07T17:55:10.337Z,99503.00
2019-05-07T17:57:38.802Z,99492.00
2019-05-07T18:00:10.330Z,99484.00
2019-05-07T18:02:58.226Z,99487.00
2019-05-07T18:05:27.967Z,99482.00
2019-05-07T18:07:57.617Z,99481.00
2019-05-07T18:10:27.455Z,99474.00
2019-05-07T18:12:57.119Z,99477.00
2019-05-07T18:15:26.897Z,99469.00
2019-05-07T18:18:15.667Z,99462.00
2019-05-07T18:20:45.424Z,99468.00
2019-05-07T18:23:17.079Z,99461.00
2019-05-07T18:25:48.537Z,99460.00
2019-05-07T18:28:18.605Z,99456.00
2019-05-07T18:30:48.325Z,99456.00
2019-05-07T18:33:22.096Z,99452.00
2019-05-07T18:35:52.727Z,99444.00
2019-05-07T18:38:22.647Z,99442.00
2019-05-07T18:40:53.028Z,99446.00
2019-05-07T18:43:22.778Z,99444.00
2019-05-07T18:45:52.652Z,99442.00
2019-05-07T18:48:29.569Z,99437.00
2019-05-07T18:50:59.434Z,99433.00
2019-05-07T18:53:29.103Z,99435.00
2019-05-07T18:55:58.798Z,99438.00
2019-05-07T18:58:28.567Z,99428.00
2019-05-07T19:01:10.893Z,99432.00
2019-05-07T19:03:42.027Z,99432.00
2019-05-07T19:06:13.403Z,99426.00
2019-05-07T19:08:43.387Z,99423.00
2019-05-07T19:11:13.060Z,99425.00
2019-05-07T19:13:42.710Z,99419.00
2019-05-07T19:16:12.795Z,99416.00
2019-05-07T19:18:43.244Z,99416.00
2019-05-07T19:21:16.792Z,99412.00
2019-05-07T19:23:46.457Z,99412.00
2019-05-07T19:26:16.137Z,99406.00
2019-05-07T19:28:45.891Z,99401.00
2019-05-07T19:31:15.614Z,99398.00
2019-05-07T19:33:45.520Z,99393.00
2019-05-07T19:36:15.782Z,99390.00
2019-05-07T19:38:45.431Z,99393.00
2019-05-07T19:41:15.094Z,99393.00
2019-05-07T19:43:44.791Z,99394.00
2019-05-07T19:46:14.483Z,99389.00
2019-05-07T19:48:45.201Z,99387.00
2019-05-07T19:51:14.920Z,99385.00
2019-05-07T19:53:44.588Z,99387.00
2019-05-07T19:56:21.943Z,99376.00
2019-05-07T19:58:52.618Z,99381.00
2019-05-07T20:01:24.516Z,99377.00
2019-05-07T20:03:54.200Z,99372.00
2019-05-07T20:06:25.366Z,99380.00
2019-05-07T20:09:08.123Z,99376.00
2019-05-07T20:11:46.032Z,99372.00
2019-05-07T20:14:15.863Z,99368.00
2019-05-07T20:16:45.586Z,99369.00
2019-05-07T20:19:15.320Z,99376.00
2019-05-07T20:21:45.167Z,99365.00
2019-05-07T20:24:14.860Z,99373.00
2019-05-07T20:26:46.421Z,99363.00
2019-05-07T20:29:16.098Z,99365.00
2019-05-07T20:31:50.296Z,99361.00
2019-05-07T20:34:22.021Z,99355.00
2019-05-07T20:36:56.746Z,99357.00
2019-05-07T20:39:26.544Z,99355.00
2019-05-07T20:41:56.208Z,99348.00
2019-05-07T20:44:26.109Z,99349.00
2019-05-07T20:46:55.794Z,99337.00
2019-05-07T20:49:27.361Z,99332.00
2019-05-07T20:51:57.043Z,99325.00
2019-05-07T20:54:42.059Z,99325.00
2019-05-07T20:57:13.383Z,99322.00
2019-05-07T20:59:44.531Z,99323.00
2019-05-07T21:02:14.219Z,99319.00
2019-05-07T21:04:43.945Z,99310.00
2019-05-07T21:07:13.614Z,99313.00
2019-05-07T21:09:43.329Z,99317.00
2019-05-07T21:12:14.007Z,99309.00
2019-05-07T21:14:43.757Z,99306.00
2019-05-07T21:17:13.976Z,99296.00
2019-05-07T21:19:47.110Z,99300.00
2019-05-07T21:22:16.837Z,99292.00
2019-05-07T21:24:47.014Z,99288.00
2019-05-07T21:27:16.843Z,99284.00
2019-05-07T21:29:46.494Z,99275.00
2019-05-07T21:32:16.192Z,99272.00
2019-05-07T21:34:45.846Z,99272.00
2019-05-07T21:37:17.164Z,99266.00
2019-05-07T21:39:46.795Z,99268.00
2019-05-07T21:42:16.504Z,99258.00
2019-05-07T21:44:46.191Z,99258.00
2019-05-07T21:47:15.879Z,99249.00
2019-05-07T21:49:45.526Z,99246.00
2019-05-07T21:52:15.254Z,99244.00
2019-05-07T21:54:58.375Z,99242.00
2019-05-07T21:57:41.708Z,99237.00
2019-05-07T22:00:15.029Z,99228.00
2019-05-07T22:02:44.685Z,99230.00
2019-05-07T22:05:15.457Z,99220.00
2019-05-07T22:07:45.150Z,99219.00
2019-05-07T22:10:15.085Z,99218.00
2019-05-07T22:12:44.742Z,99213.00
2019-05-07T22:15:14.717Z,99206.00
2019-05-07T22:17:44.523Z,99202.00
2019-05-07T22:20:14.173Z,99197.00
2019-05-07T22:22:43.859Z,99188.00
2019-05-07T22:25:13.554Z,99173.00
2019-05-07T22:27:43.236Z,99169.00
2019-05-07T22:30:23.079Z,99154.00
2019-05-07T22:33:02.460Z,99167.00
2019-05-07T22:35:33.982Z,99157.00
2019-05-07T22:38:03.927Z,99152.00
2019-05-07T22:40:33.628Z,99155.00
2019-05-07T22:43:03.306Z,99139.00
2019-05-07T22:45:33.041Z,99139.00
2019-05-07T22:48:02.936Z,99131.00
2019-05-07T22:50:33.245Z,99123.00
2019-05-07T22:53:03.250Z,99114.00
2019-05-07T22:55:32.868Z,99111.00
2019-05-07T22:58:23.126Z,99116.00
2019-05-07T23:00:55.136Z,99113.00
2019-05-07T23:03:24.818Z,99107.00
2019-05-07T23:05:56.161Z,99101.00
2019-05-07T23:08:27.464Z,99096.00
2019-05-07T23:10:57.198Z,99091.00
2019-05-07T23:13:27.108Z,99086.00
2019-05-07T23:15:56.887Z,99082.00
2019-05-07T23:18:31.767Z,99078.00
2019-05-07T23:21:01.116Z,99078.00
2019-05-07T23:23:32.568Z,99075.00
2019-05-07T23:26:02.973Z,99066.00
2019-05-07T23:28:32.974Z,99062.00
2019-05-07T23:31:02.659Z,99059.00
2019-05-07T23:33:32.394Z,99060.00
2019-05-07T23:36:02.336Z,99055.00
2019-05-07T23:38:33.652Z,99044.00
2019-05-07T23:41:04.951Z,99048.00
2019-05-07T23:43:34.698Z,99042.00
2019-05-07T23:46:04.373Z,99036.00
2019-05-07T23:48:34.047Z,99034.00
2019-05-07T23:51:22.808Z,99038.00
2019-05-07T23:53:52.464Z,99033.00
2019-05-07T23:56:23.881Z,99023.00
2019-05-07T23:58:55.107Z,99015.00
